createdAt,value
2018-05-01T00:00:10.218Z,0.00
2018-05-01T00:01:10.413Z,0.00
2018-05-01T00:02:10.608Z,0.00
2018-05-01T00:05:07.328Z,0.00
2018-05-01T00:05:43.974Z,0.00
2018-05-01T00:06:44.136Z,0.00
2018-05-01T00:07:44.318Z,0.00
2018-05-01T00:08:44.625Z,0.00
2018-05-01T00:09:44.660Z,0.00
2018-05-01T00:10:44.826Z,0.00
2018-05-01T00:11:44.995Z,0.00
2018-05-01T00:12:45.150Z,0.00
2018-05-01T00:13:45.339Z,0.00
2018-05-01T00:14:45.498Z,0.00
2018-05-01T00:15:45.727Z,0.00
2018-05-01T00:16:45.854Z,0.00
2018-05-01T00:17:46.002Z,0.00
2018-05-01T00:18:46.170Z,0.00
2018-05-01T00:19:46.334Z,0.00
2018-05-01T00:20:46.500Z,0.00
2018-05-01T00:21:46.661Z,0.00
2018-05-01T00:22:46.839Z,0.00
2018-05-01T00:23:47.052Z,0.00
2018-05-01T00:24:47.381Z,0.00
2018-05-01T00:25:47.479Z,0.00
2018-05-01T00:26:47.518Z,0.00
2018-05-01T00:27:47.684Z,0.00
2018-05-01T00:28:47.859Z,0.00
2018-05-01T00:29:48.017Z,0.00
2018-05-01T00:30:48.180Z,0.00
2018-05-01T00:31:48.342Z,0.00
2018-05-01T00:32:48.510Z,0.00
2018-05-01T00:33:48.672Z,0.00
2018-05-01T00:34:48.838Z,0.00
2018-05-01T00:35:49.004Z,0.00
2018-05-01T00:36:49.165Z,0.00
2018-05-01T00:37:49.328Z,0.00
2018-05-01T00:38:49.500Z,0.00
2018-05-01T00:39:49.662Z,0.00
2018-05-01T00:40:49.824Z,0.00
2018-05-01T00:41:50.000Z,0.00
2018-05-01T00:42:50.148Z,0.00
2018-05-01T00:43:50.312Z,0.00
2018-05-01T00:44:50.477Z,0.00
2018-05-01T00:45:50.637Z,0.00
2018-05-01T00:46:50.808Z,0.00
2018-05-01T00:47:50.973Z,0.00
2018-05-01T00:48:51.146Z,0.00
2018-05-01T00:49:51.318Z,0.00
2018-05-01T00:50:51.490Z,0.00
2018-05-01T00:51:51.652Z,0.00
2018-05-01T00:52:51.829Z,0.00
2018-05-01T00:53:51.986Z,0.00
2018-05-01T00:54:52.149Z,0.00
2018-05-01T00:55:52.310Z,0.00
2018-05-01T00:56:52.481Z,0.00
2018-05-01T00:57:52.649Z,0.00
2018-05-01T00:58:52.817Z,0.00
2018-05-01T00:59:52.985Z,0.00
2018-05-01T01:00:53.157Z,0.00
2018-05-01T01:01:53.320Z,0.00
2018-05-01T01:02:53.481Z,0.00
2018-05-01T01:03:53.647Z,0.00
2018-05-01T01:04:53.812Z,0.00
2018-05-01T01:05:53.973Z,0.00
2018-05-01T01:06:54.135Z,0.00
2018-05-01T01:07:54.301Z,0.00
2018-05-01T01:08:54.469Z,0.00
2018-05-01T01:09:54.626Z,0.00
2018-05-01T01:10:54.789Z,0.00
2018-05-01T01:11:54.954Z,0.00
2018-05-01T01:12:55.120Z,0.00
2018-05-01T01:13:55.279Z,0.00
2018-05-01T01:14:55.440Z,0.00
2018-05-01T01:15:55.604Z,0.00
2018-05-01T01:16:55.771Z,0.00
2018-05-01T01:17:55.949Z,0.00
2018-05-01T01:18:56.110Z,0.00
2018-05-01T01:19:56.277Z,0.00
2018-05-01T01:20:56.440Z,0.00
2018-05-01T01:21:56.608Z,0.00
2018-05-01T01:22:56.759Z,0.00
2018-05-01T01:23:56.940Z,0.00
2018-05-01T01:24:57.082Z,0.00
2018-05-01T01:25:57.252Z,0.00
2018-05-01T01:26:57.410Z,0.00
2018-05-01T01:27:57.566Z,0.00
2018-05-01T01:28:58.270Z,0.00
2018-05-01T01:29:57.958Z,0.00
2018-05-01T01:30:58.118Z,0.00
2018-05-01T01:31:58.284Z,0.00
2018-05-01T01:32:58.458Z,0.00
2018-05-01T01:33:58.619Z,0.00
2018-05-01T01:34:58.782Z,0.00
2018-05-01T01:35:58.946Z,0.00
2018-05-01T01:36:59.109Z,0.00
2018-05-01T01:37:59.276Z,0.00
2018-05-01T01:38:59.447Z,0.00
2018-05-01T01:39:59.607Z,0.00
2018-05-01T01:40:59.770Z,0.00
2018-05-01T01:41:59.930Z,0.00
2018-05-01T01:43:00.098Z,0.00
2018-05-01T01:44:00.261Z,0.00
2018-05-01T01:45:00.419Z,0.00
2018-05-01T01:46:00.588Z,0.00
2018-05-01T01:47:00.751Z,0.00
2018-05-01T01:48:00.916Z,0.00
2018-05-01T01:49:01.077Z,0.00
2018-05-01T01:50:01.244Z,0.00
2018-05-01T01:51:01.410Z,0.00
2018-05-01T01:52:01.570Z,0.00
2018-05-01T01:53:01.731Z,0.00
2018-05-01T01:54:01.899Z,0.00
2018-05-01T01:55:02.059Z,0.00
2018-05-01T01:56:02.220Z,0.00
2018-05-01T01:57:02.382Z,0.00
2018-05-01T01:58:02.542Z,0.00
2018-05-01T01:59:02.701Z,0.00
2018-05-01T02:00:02.871Z,0.00
2018-05-01T02:01:03.028Z,0.00
2018-05-01T02:02:03.196Z,0.00
2018-05-01T02:03:03.359Z,0.00
2018-05-01T02:04:03.515Z,0.00
2018-05-01T02:05:03.685Z,0.00
2018-05-01T02:06:03.846Z,0.00
2018-05-01T02:07:04.007Z,0.00
2018-05-01T02:08:04.170Z,0.00
2018-05-01T02:09:04.329Z,0.00
2018-05-01T02:10:04.494Z,0.00
2018-05-01T02:11:04.692Z,0.00
2018-05-01T02:12:04.823Z,0.00
2018-05-01T02:13:05.050Z,0.00
2018-05-01T02:14:05.146Z,0.00
2018-05-01T02:15:05.312Z,0.00
2018-05-01T02:16:05.476Z,0.00
2018-05-01T02:17:05.635Z,0.00
2018-05-01T02:18:05.794Z,0.00
2018-05-01T02:19:05.962Z,0.00
2018-05-01T02:20:06.126Z,0.00
2018-05-01T02:21:06.283Z,0.00
2018-05-01T02:22:06.444Z,0.00
2018-05-01T02:23:06.608Z,0.00
2018-05-01T02:24:06.776Z,0.00
2018-05-01T02:25:06.940Z,0.00
2018-05-01T02:26:07.102Z,0.00
2018-05-01T02:27:07.268Z,0.00
2018-05-01T02:28:07.425Z,0.00
2018-05-01T02:29:07.588Z,0.00
2018-05-01T02:30:07.747Z,0.00
2018-05-01T02:31:07.920Z,0.00
2018-05-01T02:32:08.076Z,0.00
2018-05-01T02:33:08.241Z,0.00
2018-05-01T02:34:08.398Z,0.00
2018-05-01T02:35:08.998Z,0.00
2018-05-01T02:36:09.183Z,0.00
2018-05-01T02:37:09.310Z,0.00
2018-05-01T02:38:09.467Z,0.00
2018-05-01T02:39:09.645Z,0.00
2018-05-01T02:40:09.818Z,0.00
2018-05-01T02:41:09.976Z,0.00
2018-05-01T02:42:10.169Z,0.00
2018-05-01T02:43:10.361Z,0.00
2018-05-01T02:44:10.148Z,0.00
2018-05-01T02:45:10.309Z,0.00
2018-05-01T02:46:10.471Z,0.00
2018-05-01T02:47:10.638Z,0.00
2018-05-01T02:48:10.795Z,0.00
2018-05-01T02:49:10.956Z,0.00
2018-05-01T02:50:11.121Z,0.00
2018-05-01T02:51:11.287Z,0.00
2018-05-01T02:52:11.443Z,0.00
2018-05-01T02:53:11.603Z,0.00
2018-05-01T02:54:11.768Z,0.00
2018-05-01T02:55:11.926Z,0.00
2018-05-01T02:56:12.092Z,0.00
2018-05-01T02:57:12.257Z,0.00
2018-05-01T02:58:12.415Z,0.00
2018-05-01T02:59:12.589Z,0.00
2018-05-01T03:00:12.751Z,0.00
2018-05-01T03:01:12.914Z,0.00
2018-05-01T03:02:13.079Z,0.00
2018-05-01T03:03:13.237Z,0.00
2018-05-01T03:04:13.398Z,0.00
2018-05-01T03:05:13.561Z,0.00
2018-05-01T03:06:13.728Z,0.00
2018-05-01T03:07:13.887Z,0.00
2018-05-01T03:08:14.056Z,0.00
2018-05-01T03:09:14.230Z,0.00
2018-05-01T03:10:14.405Z,0.00
2018-05-01T03:11:14.566Z,0.00
2018-05-01T03:12:14.728Z,0.00
2018-05-01T03:13:14.893Z,0.00
2018-05-01T03:14:15.052Z,0.00
2018-05-01T03:15:15.215Z,0.00
2018-05-01T03:16:15.379Z,0.00
2018-05-01T03:17:15.548Z,0.00
2018-05-01T03:18:15.716Z,0.00
2018-05-01T03:19:15.876Z,0.00
2018-05-01T03:20:16.041Z,0.00
2018-05-01T03:21:16.205Z,0.00
2018-05-01T03:22:16.376Z,0.00
2018-05-01T03:23:16.540Z,0.00
2018-05-01T03:24:16.698Z,0.00
2018-05-01T03:25:16.899Z,0.00
2018-05-01T03:26:17.026Z,0.00
2018-05-01T03:27:17.193Z,0.00
2018-05-01T03:28:17.359Z,4.00
2018-05-01T03:29:17.520Z,4.00
2018-05-01T03:30:17.681Z,0.00
2018-05-01T03:31:17.850Z,0.00
2018-05-01T03:32:18.015Z,4.00
2018-05-01T03:33:18.179Z,4.00
2018-05-01T03:34:18.336Z,4.00
2018-05-01T03:35:18.497Z,4.00
2018-05-01T03:36:18.655Z,8.00
2018-05-01T03:37:18.817Z,4.00
2018-05-01T03:38:18.995Z,4.00
2018-05-01T03:39:19.237Z,8.00
2018-05-01T03:40:19.314Z,8.00
2018-05-01T03:41:19.483Z,12.00
2018-05-01T03:42:19.657Z,12.00
2018-05-01T03:43:19.816Z,16.00
2018-05-01T03:44:19.987Z,12.00
2018-05-01T03:45:20.146Z,16.00
2018-05-01T03:46:20.312Z,20.00
2018-05-01T03:47:20.476Z,24.00
2018-05-01T03:48:20.637Z,20.00
2018-05-01T03:49:20.800Z,24.00
2018-05-01T03:50:20.961Z,24.00
2018-05-01T03:51:21.121Z,32.00
2018-05-01T03:52:21.291Z,28.00
2018-05-01T03:53:21.459Z,36.00
2018-05-01T03:54:21.614Z,44.00
2018-05-01T03:55:21.783Z,36.00
2018-05-01T03:56:21.950Z,44.00
2018-05-01T03:57:22.109Z,52.00
2018-05-01T03:58:22.270Z,56.00
2018-05-01T03:59:22.433Z,56.00
2018-05-01T04:00:22.592Z,52.00
2018-05-01T04:01:22.758Z,52.00
2018-05-01T04:02:23.024Z,60.00
2018-05-01T04:03:23.085Z,64.00
2018-05-01T04:04:23.256Z,64.00
2018-05-01T04:05:23.418Z,56.00
2018-05-01T04:06:23.582Z,56.00
2018-05-01T04:07:23.743Z,68.00
2018-05-01T04:08:23.901Z,72.00
2018-05-01T04:09:24.066Z,76.00
2018-05-01T04:10:24.228Z,80.00
2018-05-01T04:11:24.392Z,76.00
2018-05-01T04:12:24.572Z,72.00
2018-05-01T04:13:24.741Z,84.00
2018-05-01T04:14:24.897Z,96.00
2018-05-01T04:15:25.057Z,96.00
2018-05-01T04:16:25.218Z,92.00
2018-05-01T04:17:25.381Z,92.00
2018-05-01T04:18:25.546Z,100.00
2018-05-01T04:19:25.712Z,112.00
2018-05-01T04:20:25.868Z,108.00
2018-05-01T04:21:26.034Z,100.00
2018-05-01T04:22:26.194Z,132.00
2018-05-01T04:23:26.354Z,156.00
2018-05-01T04:24:26.519Z,136.00
2018-05-01T04:25:26.771Z,188.00
2018-05-01T04:26:26.854Z,248.00
2018-05-01T04:27:27.016Z,284.00
2018-05-01T04:28:27.184Z,208.00
2018-05-01T04:29:27.347Z,192.00
2018-05-01T04:30:27.504Z,192.00
2018-05-01T04:31:27.677Z,188.00
2018-05-01T04:32:27.840Z,184.00
2018-05-01T04:33:27.998Z,216.00
2018-05-01T04:34:28.168Z,236.00
2018-05-01T04:35:28.325Z,248.00
2018-05-01T04:36:28.492Z,272.00
2018-05-01T04:37:28.651Z,264.00
2018-05-01T04:38:28.814Z,232.00
2018-05-01T04:39:28.983Z,276.00
2018-05-01T04:40:29.144Z,336.00
2018-05-01T04:41:29.311Z,320.00
2018-05-01T04:42:29.484Z,312.00
2018-05-01T04:43:29.641Z,304.00
2018-05-01T04:44:29.802Z,336.00
2018-05-01T04:45:29.967Z,312.00
2018-05-01T04:46:30.130Z,376.00
2018-05-01T04:47:30.292Z,352.00
2018-05-01T04:48:30.458Z,420.00
2018-05-01T04:49:30.623Z,528.00
2018-05-01T04:50:30.786Z,624.00
2018-05-01T04:51:30.947Z,688.00
2018-05-01T04:52:31.117Z,712.00
2018-05-01T04:53:31.276Z,664.00
2018-05-01T04:54:31.435Z,716.00
2018-05-01T04:55:31.600Z,940.00
2018-05-01T04:56:31.772Z,1008.00
2018-05-01T04:57:31.936Z,1056.00
2018-05-01T04:58:32.106Z,964.00
2018-05-01T04:59:32.259Z,920.00
2018-05-01T05:00:32.428Z,876.00
2018-05-01T05:01:32.601Z,1172.00
2018-05-01T05:02:32.753Z,1468.00
2018-05-01T05:03:32.917Z,2232.00
2018-05-01T05:04:33.080Z,1448.00
2018-05-01T05:05:33.242Z,1460.00
2018-05-01T05:06:33.413Z,1912.00
2018-05-01T05:07:33.574Z,2004.00
2018-05-01T05:08:33.741Z,2408.00
2018-05-01T05:09:33.916Z,2644.00
2018-05-01T05:10:34.074Z,3216.00
2018-05-01T05:11:34.233Z,2748.00
2018-05-01T05:12:34.396Z,2676.00
2018-05-01T05:13:34.556Z,2448.00
2018-05-01T05:14:34.720Z,2584.00
2018-05-01T05:15:34.879Z,2784.00
2018-05-01T05:16:35.044Z,2664.00
2018-05-01T05:17:35.204Z,2600.00
2018-05-01T05:18:35.372Z,2460.00
2018-05-01T05:19:35.534Z,2716.00
2018-05-01T05:20:35.705Z,2724.00
2018-05-01T05:21:35.875Z,2780.00
2018-05-01T05:22:36.040Z,2976.00
2018-05-01T05:23:36.204Z,2816.00
2018-05-01T05:24:36.377Z,2848.00
2018-05-01T05:25:36.532Z,2720.00
2018-05-01T05:26:36.700Z,2612.00
2018-05-01T05:27:36.860Z,2312.00
2018-05-01T05:28:37.022Z,2592.00
2018-05-01T05:29:37.186Z,2388.00
2018-05-01T05:30:37.349Z,2004.00
2018-05-01T05:31:37.505Z,2100.00
2018-05-01T05:32:37.663Z,2024.00
2018-05-01T05:33:37.829Z,1760.00
2018-05-01T05:34:37.982Z,1884.00
2018-05-01T05:35:38.150Z,1644.00
2018-05-01T05:36:38.306Z,1788.00
2018-05-01T05:37:38.465Z,1976.00
2018-05-01T05:38:38.632Z,2284.00
2018-05-01T05:39:38.865Z,2120.00
2018-05-01T05:40:38.966Z,2092.00
2018-05-01T05:41:39.135Z,2420.00
2018-05-01T05:42:39.305Z,2436.00
2018-05-01T05:43:39.467Z,2536.00
2018-05-01T05:44:39.662Z,2656.00
2018-05-01T05:45:39.799Z,3064.00
2018-05-01T05:46:39.965Z,3512.00
2018-05-01T05:47:40.132Z,2908.00
2018-05-01T05:48:40.294Z,3848.00
2018-05-01T05:49:40.451Z,2904.00
2018-05-01T05:50:40.615Z,3040.00
2018-05-01T05:51:40.772Z,2560.00
2018-05-01T05:52:40.939Z,2852.00
2018-05-01T05:53:41.110Z,3588.00
2018-05-01T05:54:41.265Z,4332.00
2018-05-01T05:55:41.433Z,4900.00
2018-05-01T05:56:41.594Z,5092.00
2018-05-01T05:57:41.751Z,5752.00
2018-05-01T05:58:41.917Z,4512.00
2018-05-01T05:59:42.075Z,4792.00
2018-05-01T06:00:42.235Z,3564.00
2018-05-01T06:01:42.405Z,3376.00
2018-05-01T06:02:42.571Z,3828.00
2018-05-01T06:03:42.733Z,3720.00
2018-05-01T06:04:42.903Z,4600.00
2018-05-01T06:05:43.065Z,3536.00
2018-05-01T06:06:43.244Z,3308.00
2018-05-01T06:07:43.460Z,4080.00
2018-05-01T06:08:43.582Z,4172.00
2018-05-01T06:09:43.755Z,3572.00
2018-05-01T06:10:43.931Z,4080.00
2018-05-01T06:11:44.087Z,5024.00
2018-05-01T06:12:44.255Z,4044.00
2018-05-01T06:13:44.502Z,2864.00
2018-05-01T06:14:44.595Z,2264.00
2018-05-01T06:15:44.751Z,2712.00
2018-05-01T06:16:44.909Z,3540.00
2018-05-01T06:17:45.072Z,5432.00
2018-05-01T06:18:45.233Z,5288.00
2018-05-01T06:19:45.398Z,5028.00
2018-05-01T06:20:45.567Z,5836.00
2018-05-01T06:21:45.802Z,5476.00
2018-05-01T06:22:45.898Z,3936.00
2018-05-01T06:23:46.063Z,4440.00
2018-05-01T06:24:46.223Z,4676.00
2018-05-01T06:25:46.392Z,4820.00
2018-05-01T06:26:46.555Z,4276.00
2018-05-01T06:27:46.716Z,4820.00
2018-05-01T06:28:46.880Z,4868.00
2018-05-01T06:29:47.046Z,4780.00
2018-05-01T06:30:47.205Z,3916.00
2018-05-01T06:31:47.424Z,5372.00
2018-05-01T06:32:47.588Z,4144.00
2018-05-01T06:33:47.748Z,6808.00
2018-05-01T06:34:47.916Z,6016.00
2018-05-01T06:35:48.086Z,5284.00
2018-05-01T06:36:48.300Z,6132.00
2018-05-01T06:37:48.407Z,5904.00
2018-05-01T06:38:48.563Z,6888.00
2018-05-01T06:39:48.748Z,5384.00
2018-05-01T06:40:48.910Z,6984.00
2018-05-01T06:41:49.074Z,8464.00
2018-05-01T06:42:49.237Z,8436.00
2018-05-01T06:43:49.397Z,7964.00
2018-05-01T06:44:49.572Z,6428.00
2018-05-01T06:45:49.734Z,6596.00
2018-05-01T06:46:49.902Z,7112.00
2018-05-01T06:47:50.076Z,7596.00
2018-05-01T06:48:50.240Z,8432.00
2018-05-01T06:49:50.406Z,9024.00
2018-05-01T06:50:50.573Z,8724.00
2018-05-01T06:51:50.725Z,8396.00
2018-05-01T06:52:50.883Z,8004.00
2018-05-01T06:53:51.051Z,8960.00
2018-05-01T06:54:51.218Z,9652.00
2018-05-01T06:55:51.372Z,9728.00
2018-05-01T06:56:51.543Z,9016.00
2018-05-01T06:57:51.711Z,8784.00
2018-05-01T06:58:51.871Z,7368.00
2018-05-01T06:59:52.032Z,8088.00
2018-05-01T07:00:52.201Z,9184.00
2018-05-01T07:01:52.356Z,9548.00
2018-05-01T07:02:52.534Z,7364.00
2018-05-01T07:03:52.692Z,8596.00
2018-05-01T07:04:52.877Z,8980.00
2018-05-01T07:05:53.050Z,8632.00
2018-05-01T07:06:53.203Z,7256.00
2018-05-01T07:07:53.449Z,7444.00
2018-05-01T07:08:53.548Z,8512.00
2018-05-01T07:09:53.724Z,6924.00
2018-05-01T07:10:53.889Z,6700.00
2018-05-01T07:11:54.058Z,4992.00
2018-05-01T07:12:54.228Z,7140.00
2018-05-01T07:13:54.388Z,6268.00
2018-05-01T07:14:54.552Z,4704.00
2018-05-01T07:15:54.796Z,4880.00
2018-05-01T07:16:54.887Z,4944.00
2018-05-01T07:17:55.057Z,4780.00
2018-05-01T07:18:55.217Z,4680.00
2018-05-01T07:19:55.384Z,4860.00
2018-05-01T07:20:55.551Z,4668.00
2018-05-01T07:21:55.723Z,4520.00
2018-05-01T07:22:55.895Z,3752.00
2018-05-01T07:23:56.071Z,4048.00
2018-05-01T07:24:56.236Z,3976.00
2018-05-01T07:25:56.409Z,4108.00
2018-05-01T07:26:56.573Z,4440.00
2018-05-01T07:27:56.742Z,5424.00
2018-05-01T07:28:56.901Z,5388.00
2018-05-01T07:29:57.066Z,5792.00
2018-05-01T07:30:57.229Z,6020.00
2018-05-01T07:31:57.390Z,4896.00
2018-05-01T07:32:57.571Z,4384.00
2018-05-01T07:33:57.733Z,4636.00
2018-05-01T07:34:57.891Z,5032.00
2018-05-01T07:35:58.055Z,5428.00
2018-05-01T07:36:58.220Z,6084.00
2018-05-01T07:37:58.393Z,4952.00
2018-05-01T07:38:58.555Z,4832.00
2018-05-01T07:39:58.722Z,4416.00
2018-05-01T07:40:58.883Z,5044.00
2018-05-01T07:41:59.045Z,4624.00
2018-05-01T07:42:59.205Z,4060.00
2018-05-01T07:43:59.382Z,3360.00
2018-05-01T07:44:59.565Z,5076.00
2018-05-01T07:45:59.731Z,5720.00
2018-05-01T07:46:59.894Z,5820.00
2018-05-01T07:48:00.058Z,6704.00
2018-05-01T07:49:00.252Z,6724.00
2018-05-01T07:50:00.385Z,6436.00
2018-05-01T07:51:00.549Z,6168.00
2018-05-01T07:52:00.713Z,6952.00
2018-05-01T07:53:00.884Z,7228.00
2018-05-01T07:54:01.055Z,6716.00
2018-05-01T07:55:01.222Z,6876.00
2018-05-01T07:56:01.399Z,7776.00
2018-05-01T07:57:01.547Z,7072.00
2018-05-01T07:58:01.713Z,7560.00
2018-05-01T07:59:01.878Z,7916.00
2018-05-01T08:00:02.036Z,8332.00
2018-05-01T08:01:02.202Z,10000.00
2018-05-01T08:02:02.360Z,9004.00
2018-05-01T08:03:02.525Z,9380.00
2018-05-01T08:04:02.691Z,11096.00
2018-05-01T08:05:02.872Z,10704.00
2018-05-01T08:06:03.041Z,10720.00
2018-05-01T08:07:03.287Z,9148.00
2018-05-01T08:08:03.378Z,8324.00
2018-05-01T08:09:03.543Z,6396.00
2018-05-01T08:10:03.709Z,5796.00
2018-05-01T08:11:03.875Z,4352.00
2018-05-01T08:12:04.121Z,4156.00
2018-05-01T08:13:04.220Z,4512.00
2018-05-01T08:14:04.387Z,5412.00
2018-05-01T08:15:04.555Z,6000.00
2018-05-01T08:16:04.738Z,6736.00
2018-05-01T08:17:04.908Z,8164.00
2018-05-01T08:18:05.085Z,11892.00
2018-05-01T08:19:05.249Z,9900.00
2018-05-01T08:20:05.414Z,9664.00
2018-05-01T08:21:06.348Z,9192.00
2018-05-01T08:22:05.757Z,8520.00
2018-05-01T08:23:05.925Z,8312.00
2018-05-01T08:24:06.090Z,7088.00
2018-05-01T08:25:06.257Z,6276.00
2018-05-01T08:26:06.419Z,5724.00
2018-05-01T08:27:06.585Z,6140.00
2018-05-01T08:28:06.750Z,6016.00
2018-05-01T08:29:06.917Z,6096.00
2018-05-01T08:30:07.080Z,6280.00
2018-05-01T08:31:07.261Z,5768.00
2018-05-01T08:32:07.428Z,5120.00
2018-05-01T08:33:07.594Z,4608.00
2018-05-01T08:34:07.759Z,4676.00
2018-05-01T08:35:07.922Z,4376.00
2018-05-01T08:36:08.082Z,3980.00
2018-05-01T08:37:08.262Z,3868.00
2018-05-01T08:38:08.408Z,4100.00
2018-05-01T08:39:08.588Z,4232.00
2018-05-01T08:40:08.748Z,5352.00
2018-05-01T08:41:08.918Z,7308.00
2018-05-01T08:42:09.088Z,8568.00
2018-05-01T08:43:09.263Z,8900.00
2018-05-01T08:44:09.427Z,9408.00
2018-05-01T08:45:09.586Z,11236.00
2018-05-01T08:46:09.764Z,13668.00
2018-05-01T08:47:09.937Z,13280.00
2018-05-01T08:48:10.093Z,11368.00
2018-05-01T08:49:10.244Z,10176.00
2018-05-01T08:50:10.439Z,8364.00
2018-05-01T08:51:10.598Z,8424.00
2018-05-01T08:52:10.770Z,6448.00
2018-05-01T08:53:11.017Z,5668.00
2018-05-01T08:54:11.083Z,5472.00
2018-05-01T08:55:11.250Z,5364.00
2018-05-01T08:56:11.414Z,5272.00
2018-05-01T08:57:11.586Z,5156.00
2018-05-01T08:58:11.757Z,5596.00
2018-05-01T08:59:11.915Z,7120.00
2018-05-01T09:00:12.097Z,8824.00
2018-05-01T09:01:12.267Z,9068.00
2018-05-01T09:02:12.433Z,7400.00
2018-05-01T09:03:12.602Z,6884.00
2018-05-01T09:04:12.835Z,6564.00
2018-05-01T09:05:12.935Z,6360.00
2018-05-01T09:06:13.111Z,6988.00
2018-05-01T09:07:27.928Z,6480.00
2018-05-01T09:08:13.465Z,6208.00
2018-05-01T09:09:13.622Z,8204.00
2018-05-01T09:10:13.794Z,9104.00
2018-05-01T09:11:13.958Z,9820.00
2018-05-01T09:12:14.130Z,7892.00
2018-05-01T09:13:14.293Z,5804.00
2018-05-01T09:14:14.457Z,5668.00
2018-05-01T09:15:14.627Z,7036.00
2018-05-01T09:16:14.791Z,7380.00
2018-05-01T09:17:14.957Z,8220.00
2018-05-01T09:18:15.239Z,12600.00
2018-05-01T09:19:15.295Z,18240.00
2018-05-01T09:20:15.456Z,20384.00
2018-05-01T09:21:15.615Z,19904.00
2018-05-01T09:22:15.780Z,22144.00
2018-05-01T09:23:15.944Z,13940.00
2018-05-01T09:24:16.119Z,28160.00
2018-05-01T09:25:16.286Z,28096.00
2018-05-01T09:26:16.563Z,28480.00
2018-05-01T09:27:16.873Z,36320.00
2018-05-01T09:28:16.980Z,38112.00
2018-05-01T09:29:16.968Z,39744.00
2018-05-01T09:30:17.133Z,19232.00
2018-05-01T09:31:17.299Z,15212.00
2018-05-01T09:32:17.565Z,9732.00
2018-05-01T09:33:17.664Z,8252.00
2018-05-01T09:34:17.830Z,8400.00
2018-05-01T09:35:18.017Z,6492.00
2018-05-01T09:36:18.191Z,5964.00
2018-05-01T09:37:18.359Z,5236.00
2018-05-01T09:38:18.536Z,4864.00
2018-05-01T09:39:18.703Z,4040.00
2018-05-01T09:40:18.880Z,4260.00
2018-05-01T09:41:19.035Z,4532.00
2018-05-01T09:42:19.213Z,4876.00
2018-05-01T09:43:19.395Z,5920.00
2018-05-01T09:44:19.563Z,6188.00
2018-05-01T09:45:19.740Z,7212.00
2018-05-01T09:46:20.062Z,10964.00
2018-05-01T09:47:20.093Z,13764.00
2018-05-01T09:48:20.259Z,26848.00
2018-05-01T09:49:20.434Z,39392.00
2018-05-01T09:50:20.734Z,20256.00
2018-05-01T09:51:20.756Z,10680.00
2018-05-01T09:52:21.135Z,7348.00
2018-05-01T09:53:21.092Z,6644.00
2018-05-01T09:54:21.373Z,7448.00
2018-05-01T09:55:21.577Z,7280.00
2018-05-01T09:56:21.546Z,7368.00
2018-05-01T09:57:21.722Z,8964.00
2018-05-01T09:58:21.883Z,11940.00
2018-05-01T09:59:22.071Z,12208.00
2018-05-01T10:00:22.231Z,12316.00
2018-05-01T10:01:22.405Z,15572.00
2018-05-01T10:02:22.576Z,40672.00
2018-05-01T10:03:22.912Z,19040.00
2018-05-01T10:04:22.902Z,20864.00
2018-05-01T10:05:23.071Z,34560.00
2018-05-01T10:06:23.242Z,15300.00
2018-05-01T10:07:23.406Z,40320.00
2018-05-01T10:08:23.577Z,20768.00
2018-05-01T10:09:23.783Z,13072.00
2018-05-01T10:10:23.913Z,15288.00
2018-05-01T10:11:24.088Z,37504.00
2018-05-01T10:12:24.280Z,36736.00
2018-05-01T10:13:24.501Z,31232.00
2018-05-01T10:14:24.645Z,32512.00
2018-05-01T10:15:24.818Z,34528.00
2018-05-01T10:16:24.993Z,33152.00
2018-05-01T10:17:25.173Z,35904.00
2018-05-01T10:18:25.341Z,15988.00
2018-05-01T10:19:25.517Z,35968.00
2018-05-01T10:20:25.714Z,20288.00
2018-05-01T10:21:25.868Z,31968.00
2018-05-01T10:22:26.045Z,32480.00
2018-05-01T10:23:26.227Z,32928.00
2018-05-01T10:24:26.776Z,18304.00
2018-05-01T10:25:26.692Z,27168.00
2018-05-01T10:26:26.719Z,16236.00
2018-05-01T10:27:26.894Z,34784.00
2018-05-01T10:28:27.083Z,34944.00
2018-05-01T10:29:27.255Z,38432.00
2018-05-01T10:30:28.374Z,42688.00
2018-05-01T10:31:27.625Z,87232.00
2018-05-01T10:32:27.818Z,247008.00
2018-05-01T10:33:28.009Z,182240.00
2018-05-01T10:34:28.181Z,17408.00
2018-05-01T10:35:28.357Z,140480.00
2018-05-01T10:36:28.534Z,139872.00
2018-05-01T10:37:28.713Z,14568.00
2018-05-01T10:38:28.941Z,134976.00
2018-05-01T10:39:29.079Z,137440.00
2018-05-01T10:40:29.257Z,95008.00
2018-05-01T10:41:29.438Z,22368.00
2018-05-01T10:42:29.608Z,49280.00
2018-05-01T10:43:29.800Z,135232.00
2018-05-01T10:44:29.983Z,25568.00
2018-05-01T10:45:30.151Z,17536.00
2018-05-01T10:46:30.325Z,76800.00
2018-05-01T10:47:30.500Z,136928.00
2018-05-01T10:48:30.676Z,128928.00
2018-05-01T10:49:30.893Z,130816.00
2018-05-01T10:50:31.035Z,132768.00
2018-05-01T10:51:31.216Z,15444.00
2018-05-01T10:52:31.392Z,14952.00
2018-05-01T10:53:31.584Z,142080.00
2018-05-01T10:55:07.458Z,12536.00
2018-05-01T10:55:59.937Z,12588.00
2018-05-01T10:57:07.975Z,25888.00
2018-05-01T10:57:53.249Z,134144.00
2018-05-01T10:58:32.403Z,137632.00
2018-05-01T10:59:47.453Z,134432.00
2018-05-01T11:00:33.428Z,135456.00
2018-05-01T11:03:08.955Z,15888.00
2018-05-01T11:05:07.523Z,133920.00
2018-05-01T11:06:06.868Z,117408.00
2018-05-01T11:07:06.689Z,127328.00
2018-05-01T11:08:07.823Z,15628.00
2018-05-01T11:09:07.044Z,138464.00
2018-05-01T11:10:07.418Z,124448.00
2018-05-01T11:11:07.624Z,126880.00
2018-05-01T11:12:08.427Z,137216.00
2018-05-01T11:13:07.916Z,136320.00
2018-05-01T11:14:08.188Z,136896.00
2018-05-01T11:15:08.382Z,137888.00
2018-05-01T11:16:08.402Z,122144.00
2018-05-01T11:17:08.774Z,135936.00
2018-05-01T11:18:08.910Z,69120.00
2018-05-01T11:19:09.020Z,141952.00
2018-05-01T11:20:09.286Z,137856.00
2018-05-01T11:21:09.356Z,133696.00
2018-05-01T11:22:09.639Z,133856.00
2018-05-01T11:23:09.782Z,135072.00
2018-05-01T11:24:09.906Z,132704.00
2018-05-01T11:25:10.082Z,132608.00
2018-05-01T11:26:10.350Z,133632.00
2018-05-01T11:27:10.377Z,132864.00
2018-05-01T11:28:10.744Z,133248.00
2018-05-01T11:29:10.881Z,135040.00
2018-05-01T11:30:11.043Z,134720.00
2018-05-01T11:31:11.107Z,132448.00
2018-05-01T11:32:11.160Z,135584.00
2018-05-01T11:33:11.515Z,136192.00
2018-05-01T11:34:11.510Z,136000.00
2018-05-01T11:35:12.431Z,136096.00
2018-05-01T11:36:11.889Z,131840.00
2018-05-01T11:37:12.182Z,133696.00
2018-05-01T11:38:12.991Z,136288.00
2018-05-01T11:39:12.476Z,134688.00
2018-05-01T11:40:13.465Z,135648.00
2018-05-01T11:41:12.849Z,137504.00
2018-05-01T11:42:12.902Z,134336.00
2018-05-01T11:43:13.266Z,129728.00
2018-05-01T11:44:13.489Z,82784.00
2018-05-01T11:45:13.569Z,139680.00
2018-05-01T11:46:13.617Z,142176.00
2018-05-01T11:47:13.927Z,137536.00
2018-05-01T11:48:14.057Z,130464.00
2018-05-01T11:49:14.248Z,130240.00
2018-05-01T11:50:14.306Z,133344.00
2018-05-01T11:51:14.743Z,128512.00
2018-05-01T11:52:14.801Z,130080.00
2018-05-01T11:53:14.863Z,134432.00
2018-05-01T11:54:15.200Z,134144.00
2018-05-01T11:55:15.476Z,130336.00
2018-05-01T11:56:15.765Z,133792.00
2018-05-01T11:57:15.817Z,137312.00
2018-05-01T11:58:16.073Z,39072.00
2018-05-01T11:59:16.285Z,22368.00
2018-05-01T12:00:16.399Z,23616.00
2018-05-01T12:01:16.548Z,21312.00
2018-05-01T12:02:17.485Z,136672.00
2018-05-01T12:03:17.154Z,137696.00
2018-05-01T12:04:17.334Z,135552.00
2018-05-01T12:05:17.576Z,134304.00
2018-05-01T12:06:17.594Z,112448.00
2018-05-01T12:07:17.788Z,137248.00
2018-05-01T12:08:18.003Z,13272.00
2018-05-01T12:09:18.179Z,13412.00
2018-05-01T12:10:18.352Z,127392.00
2018-05-01T12:11:18.544Z,13596.00
2018-05-01T12:12:18.716Z,23776.00
2018-05-01T12:13:19.849Z,32896.00
2018-05-01T12:14:19.151Z,46464.00
2018-05-01T12:15:19.452Z,17888.00
2018-05-01T12:16:19.638Z,10884.00
2018-05-01T12:17:19.636Z,124608.00
2018-05-01T12:18:19.819Z,121600.00
2018-05-01T12:19:21.020Z,116928.00
2018-05-01T12:20:20.194Z,116992.00
2018-05-01T12:21:20.380Z,124384.00
2018-05-01T12:22:20.564Z,106080.00
2018-05-01T12:23:20.920Z,97376.00
2018-05-01T12:24:21.072Z,13488.00
2018-05-01T12:25:21.111Z,13684.00
2018-05-01T12:26:21.302Z,28704.00
2018-05-01T12:27:22.908Z,130208.00